Eastern Galaxy — DUCH — position and weather

sailwx.info

Track history (hours):
 
Tides and Currents Weather Stations Pressure Air Temp Water Temp Dewpoint Dewpoint Depression Visibility Wind Speed Wind Dir Waves Ship Positions

Eastern Galaxy

Last reported at 2015-May-18 16:24 UTC. Time now 2015-May-25 05:33 UTC.
Position N 34°52' E 139°17'.

Length 100 m; draft 5.5 m.

Type: Cargo ship. MMSI: 548829000.

Date/timePositionNaut miles runAvg speedWind from/ knotsBaromVisibWave heightAir tempDewpointWater temp
2015-May-18 16:24N 34°52' E 139°17'1011.7
2015-May-18 15:34N 34°57' E 139°27'1211.7
2015-May-18 14:33N 35°03' E 139°39'1111.4
2015-May-18 13:34N 35°13' E 139°46'1111.2
2015-May-18 12:34N 35°24' E 139°42'4 3.8
2015-May-18 11:31N 35°27' E 139°41'0 0.0
2015-May-18 10:31N 35°27' E 139°41'0 0.0
2015-May-18 09:31N 35°27' E 139°41'0 0.0
2015-May-18 08:31N 35°27' E 139°41'0 0.0
2015-May-18 07:31N 35°27' E 139°41'0 0.0
2015-May-18 06:31N 35°27' E 139°41'0 0.0
2015-May-18 05:31N 35°27' E 139°41'0 0.0
2015-May-18 04:31N 35°27' E 139°41'0 0.0
2015-May-18 03:31N 35°27' E 139°41'0 0.0
2015-May-18 02:31N 35°27' E 139°41'0 0.0
2015-May-18 01:31N 35°27' E 139°41'0 0.0
2015-May-18 00:31N 35°27' E 139°41'0 0.0
2015-May-17 23:31N 35°27' E 139°41'0 0.0
2015-May-17 22:31N 35°27' E 139°41'2 1.7
2015-May-17 21:33N 35°26' E 139°42'6 5.9
2015-May-17 20:33N 35°20' E 139°43'10 9.5
2015-May-17 19:33N 35°11' E 139°47'8 8.4
2015-May-17 18:33N 35°03' E 139°43'1310.7
2015-May-17 17:21N 34°54' E 139°31'59 6.5
2015-May-17 08:19N 34°25' E 138°30'18010.0
2015-May-16 14:21N 33°48' E 134°57'911.5
2015-May-16 13:33N 33°57' E 134°56'1211.7
2015-May-16 12:34N 34°09' E 134°57'1111.2
2015-May-16 11:33N 34°20' E 134°59'1111.1
2015-May-16 10:33N 34°28' E 135°09'1212.2
2015-May-16 09:33N 34°36' E 135°20'6 5.8
2015-May-16 08:33N 34°39' E 135°26'0 0.0
2015-May-16 07:33N 34°39' E 135°26'0 0.0
2015-May-16 06:15N 34°39' E 135°26'0 0.0
2015-May-16 05:27N 34°39' E 135°26'0 0.0
2015-May-16 04:33N 34°39' E 135°26'0 0.0
2015-May-16 03:33N 34°39' E 135°26'0 0.0
2015-May-16 02:33N 34°39' E 135°26'0 0.0
2015-May-16 01:33N 34°39' E 135°26'0 0.0
2015-May-16 00:33N 34°39' E 135°26'0 0.0
2015-May-15 23:27N 34°39' E 135°26'0 0.1
2015-May-15 22:33N 34°39' E 135°26'0 0.0
2015-May-15 21:33N 34°39' E 135°26'0 0.0
2015-May-15 20:33N 34°39' E 135°26'0 0.0
2015-May-15 19:33N 34°39' E 135°26'0 0.0
2015-May-15 18:33N 34°39' E 135°26'0 0.0
2015-May-15 17:33N 34°39' E 135°26'0 0.0
2015-May-15 16:33N 34°39' E 135°26'0 0.0
2015-May-15 15:33N 34°39' E 135°26'0 0.0
2015-May-15 14:33N 34°39' E 135°26'0 0.0
2015-May-15 13:33N 34°39' E 135°26'0 0.0
2015-May-15 12:33N 34°39' E 135°26'0 0.0
2015-May-15 11:33N 34°39' E 135°26'0 0.0
2015-May-15 10:33N 34°39' E 135°26'0 0.0
2015-May-15 09:21N 34°39' E 135°26'0 0.0
2015-May-15 08:33N 34°39' E 135°26'0 0.0
2015-May-15 07:33N 34°39' E 135°26'0 0.0
2015-May-15 06:33N 34°39' E 135°26'0 0.2
2015-May-15 05:33N 34°39' E 135°25'6 6.2
2015-May-15 04:33N 34°36' E 135°19'9 8.9
2015-May-15 03:33N 34°29' E 135°12'1212.5
2015-May-15 02:33N 34°20' E 135°02'1110.7
2015-May-15 01:34N 34°10' E 134°59'1313.0
2015-May-15 00:33N 33°57' E 134°59'  
Track history (hours):
 
Tides and Currents Weather Stations Pressure Air Temp Water Temp Dewpoint Dewpoint Depression Visibility Wind Speed Wind Dir Waves Ship Positions

Eastern Galaxy

Last reported at 2015-May-18 16:24 UTC. Time now 2015-May-25 05:33 UTC.
Position N 34°52' E 139°17'.

Length 100 m; draft 5.5 m.

Type: Cargo ship. MMSI: 548829000.

Date/timePositionNaut miles runAvg speedWind from/ knotsBaromVisibWave heightAir tempDewpointWater temp
2015-May-18 16:24N 34°52' E 139°17'1011.7
2015-May-18 15:34N 34°57' E 139°27'1211.7
2015-May-18 14:33N 35°03' E 139°39'1111.4
2015-May-18 13:34N 35°13' E 139°46'1111.2
2015-May-18 12:34N 35°24' E 139°42'4 3.8
2015-May-18 11:31N 35°27' E 139°41'0 0.0
2015-May-18 10:31N 35°27' E 139°41'0 0.0
2015-May-18 09:31N 35°27' E 139°41'0 0.0
2015-May-18 08:31N 35°27' E 139°41'0 0.0
2015-May-18 07:31N 35°27' E 139°41'0 0.0
2015-May-18 06:31N 35°27' E 139°41'0 0.0
2015-May-18 05:31N 35°27' E 139°41'0 0.0
2015-May-18 04:31N 35°27' E 139°41'0 0.0
2015-May-18 03:31N 35°27' E 139°41'0 0.0
2015-May-18 02:31N 35°27' E 139°41'0 0.0
2015-May-18 01:31N 35°27' E 139°41'0 0.0
2015-May-18 00:31N 35°27' E 139°41'0 0.0
2015-May-17 23:31N 35°27' E 139°41'0 0.0
2015-May-17 22:31N 35°27' E 139°41'2 1.7
2015-May-17 21:33N 35°26' E 139°42'6 5.9
2015-May-17 20:33N 35°20' E 139°43'10 9.5
2015-May-17 19:33N 35°11' E 139°47'8 8.4
2015-May-17 18:33N 35°03' E 139°43'1310.7
2015-May-17 17:21N 34°54' E 139°31'59 6.5
2015-May-17 08:19N 34°25' E 138°30'18010.0
2015-May-16 14:21N 33°48' E 134°57'911.5
2015-May-16 13:33N 33°57' E 134°56'1211.7
2015-May-16 12:34N 34°09' E 134°57'1111.2
2015-May-16 11:33N 34°20' E 134°59'1111.1
2015-May-16 10:33N 34°28' E 135°09'1212.2
2015-May-16 09:33N 34°36' E 135°20'6 5.8
2015-May-16 08:33N 34°39' E 135°26'0 0.0
2015-May-16 07:33N 34°39' E 135°26'0 0.0
2015-May-16 06:15N 34°39' E 135°26'0 0.0
2015-May-16 05:27N 34°39' E 135°26'0 0.0
2015-May-16 04:33N 34°39' E 135°26'0 0.0
2015-May-16 03:33N 34°39' E 135°26'0 0.0
2015-May-16 02:33N 34°39' E 135°26'0 0.0
2015-May-16 01:33N 34°39' E 135°26'0 0.0
2015-May-16 00:33N 34°39' E 135°26'0 0.0
2015-May-15 23:27N 34°39' E 135°26'0 0.1
2015-May-15 22:33N 34°39' E 135°26'0 0.0
2015-May-15 21:33N 34°39' E 135°26'0 0.0
2015-May-15 20:33N 34°39' E 135°26'0 0.0
2015-May-15 19:33N 34°39' E 135°26'0 0.0
2015-May-15 18:33N 34°39' E 135°26'0 0.0
2015-May-15 17:33N 34°39' E 135°26'0 0.0
2015-May-15 16:33N 34°39' E 135°26'0 0.0
2015-May-15 15:33N 34°39' E 135°26'0 0.0
2015-May-15 14:33N 34°39' E 135°26'0 0.0
2015-May-15 13:33N 34°39' E 135°26'0 0.0
2015-May-15 12:33N 34°39' E 135°26'0 0.0
2015-May-15 11:33N 34°39' E 135°26'0 0.0
2015-May-15 10:33N 34°39' E 135°26'0 0.0
2015-May-15 09:21N 34°39' E 135°26'0 0.0
2015-May-15 08:33N 34°39' E 135°26'0 0.0
2015-May-15 07:33N 34°39' E 135°26'0 0.0
2015-May-15 06:33N 34°39' E 135°26'0 0.2
2015-May-15 05:33N 34°39' E 135°25'6 6.2
2015-May-15 04:33N 34°36' E 135°19'9 8.9
2015-May-15 03:33N 34°29' E 135°12'1212.5
2015-May-15 02:33N 34°20' E 135°02'1110.7
2015-May-15 01:34N 34°10' E 134°59'1313.0
2015-May-15 00:33N 33°57' E 134°59'  

Dump ship's entire track history